Time;durP1;ratioP1;P1;durP2;ratioP2;P2;SDS_P1;SDS_P2;PMS_P1;PMS_P2;Temp;Humidity;BMP_temperature;BMP_pressure;BME280_temperature;BME280_humidity;BME280_pressure;Samples;Min_cycle;Max_cycle;Signal;HPM_P1;HPM_P2
2023/06/19 00:00:20;;;;;;;1.40;0.90;;;23.70;88.50;;;;;;5043665;28;20482;-79
2023/06/19 00:02:47;;;;;;;1.47;0.90;;;23.70;88.50;;;;;;5026242;28;20495;-80
2023/06/19 00:05:14;;;;;;;1.43;0.90;;;23.70;88.40;;;;;;5046475;28;20482;-79
2023/06/19 00:07:42;;;;;;;1.47;0.87;;;23.70;87.90;;;;;;5025857;28;20529;-79
2023/06/19 00:10:09;;;;;;;1.43;0.90;;;23.70;88.50;;;;;;5034584;28;20602;-82
2023/06/19 00:12:36;;;;;;;1.50;1.10;;;23.70;88.30;;;;;;5024800;28;20583;-80
2023/06/19 00:15:03;;;;;;;1.47;0.90;;;23.60;87.90;;;;;;5043011;28;20478;-81
2023/06/19 00:17:30;;;;;;;1.50;0.80;;;23.60;87.80;;;;;;5027229;28;20565;-80
2023/06/19 00:19:57;;;;;;;1.47;0.83;;;23.60;88.00;;;;;;5041108;28;20463;-83
2023/06/19 00:22:25;;;;;;;1.47;0.90;;;23.60;88.10;;;;;;5024219;28;20490;-81
2023/06/19 00:24:56;;;;;;;1.43;0.90;;;23.50;88.70;;;;;;5038862;28;20815;-83
2023/06/19 00:27:24;;;;;;;1.43;0.90;;;23.50;88.70;;;;;;5029469;28;20479;-81
2023/06/19 00:29:51;;;;;;;2.47;1.97;;;23.50;88.70;;;;;;5041037;28;20497;-84
2023/06/19 00:32:18;;;;;;;1.50;0.90;;;23.40;89.10;;;;;;5021564;28;20479;-82
2023/06/19 00:34:46;;;;;;;1.40;0.90;;;23.40;89.90;;;;;;5037253;28;20464;-83
2023/06/19 00:37:13;;;;;;;1.50;1.10;;;23.30;88.90;;;;;;5030167;28;20517;-81
2023/06/19 00:39:40;;;;;;;1.50;0.90;;;23.30;89.60;;;;;;5042936;28;20463;-82
2023/06/19 00:42:09;;;;;;;1.43;0.80;;;23.20;89.70;;;;;;5020925;28;20523;-82
2023/06/19 00:44:35;;;;;;;1.50;0.90;;;23.20;89.90;;;;;;5041393;28;20505;-81
2023/06/19 00:47:04;;;;;;;1.40;0.90;;;23.10;90.10;;;;;;5030088;28;20509;-84
2023/06/19 00:49:32;;;;;;;1.47;0.90;;;23.10;90.10;;;;;;5040302;28;20458;-81
2023/06/19 00:51:59;;;;;;;1.50;0.90;;;23.10;89.60;;;;;;5023743;28;20526;-81
2023/06/19 00:54:26;;;;;;;1.43;0.90;;;23.00;90.30;;;;;;5039159;28;20458;-80
2023/06/19 00:56:53;;;;;;;1.47;0.80;;;23.00;90.20;;;;;;5030833;28;20486;-80
2023/06/19 00:59:22;;;;;;;1.43;0.90;;;23.00;90.00;;;;;;5038728;28;20462;-82
2023/06/19 01:01:49;;;;;;;1.43;0.90;;;23.00;90.30;;;;;;5030799;28;20586;-82
2023/06/19 01:04:15;;;;;;;1.43;0.90;;;23.00;90.40;;;;;;5037812;28;20890;-86
2023/06/19 01:06:52;;;;;;;1.43;0.90;;;23.00;90.30;;;;;;5030126;28;20479;-81
2023/06/19 01:09:20;;;;;;;1.50;0.90;;;23.00;90.60;;;;;;5039208;28;20477;-82
2023/06/19 01:11:52;;;;;;;1.50;1.00;;;23.00;90.30;;;;;;5021845;28;20977;-83
2023/06/19 01:14:22;;;;;;;1.50;0.90;;;23.00;90.20;;;;;;5038121;28;20455;-80
2023/06/19 01:16:49;;;;;;;1.50;0.90;;;22.90;89.80;;;;;;5027700;28;20941;-79
2023/06/19 01:19:19;;;;;;;1.50;0.90;;;22.90;90.40;;;;;;5039032;28;20652;-80
2023/06/19 01:21:47;;;;;;;1.43;0.90;;;22.90;90.00;;;;;;5026239;28;20482;-81
2023/06/19 01:24:15;;;;;;;1.47;0.90;;;22.90;90.20;;;;;;5041563;28;20473;-82
2023/06/19 01:26:45;;;;;;;1.43;0.90;;;22.80;90.80;;;;;;5020668;28;20478;-80
2023/06/19 01:29:12;;;;;;;1.50;0.90;;;22.80;90.20;;;;;;5034185;28;20459;-81
2023/06/19 01:31:47;;;;;;;1.43;0.90;;;22.80;90.30;;;;;;5020479;28;20490;-80
2023/06/19 01:34:17;;;;;;;1.50;0.90;;;22.70;90.10;;;;;;5037290;28;20881;-81
2023/06/19 01:36:45;;;;;;;1.47;0.90;;;22.70;89.90;;;;;;5026733;28;20475;-78
2023/06/19 01:39:15;;;;;;;1.47;0.90;;;22.70;91.10;;;;;;5036292;28;20466;-79
2023/06/19 01:41:43;;;;;;;1.50;0.90;;;22.60;90.80;;;;;;5023765;28;20479;-80
2023/06/19 01:44:10;;;;;;;1.43;0.87;;;22.60;91.60;;;;;;5036009;28;20467;-80
2023/06/19 01:46:37;;;;;;;1.47;0.90;;;22.50;91.60;;;;;;5026100;28;21259;-81
2023/06/19 01:49:07;;;;;;;1.50;0.90;;;22.50;91.40;;;;;;5033063;28;20528;-80
2023/06/19 01:51:34;;;;;;;1.47;0.90;;;22.50;91.70;;;;;;5026020;28;20483;-80
2023/06/19 01:54:01;;;;;;;1.50;0.90;;;22.50;92.10;;;;;;5032880;28;20460;-82
2023/06/19 01:56:29;;;;;;;1.43;0.90;;;22.50;91.90;;;;;;5029432;28;20475;-78
2023/06/19 01:58:56;;;;;;;1.43;0.90;;;22.50;92.30;;;;;;5031248;28;20470;-83
2023/06/19 02:01:23;;;;;;;1.47;0.90;;;22.50;92.40;;;;;;5021685;28;20541;-80
2023/06/19 02:03:49;;;;;;;1.47;0.90;;;22.60;91.60;;;;;;5030635;28;20469;-81
2023/06/19 02:06:16;;;;;;;1.47;0.90;;;22.60;92.60;;;;;;5028875;28;20546;-82
2023/06/19 02:08:43;;;;;;;1.50;0.90;;;22.60;92.20;;;;;;5038561;28;20463;-81
2023/06/19 02:11:10;;;;;;;1.50;0.90;;;22.60;92.50;;;;;;5033415;28;20494;-81
2023/06/19 02:13:38;;;;;;;1.40;0.90;;;22.60;92.30;;;;;;5039499;28;20831;-80
2023/06/19 02:16:05;;;;;;;1.47;0.90;;;22.70;93.00;;;;;;5027058;28;20455;-81
2023/06/19 02:18:32;;;;;;;1.43;0.90;;;22.70;93.10;;;;;;5038114;28;20721;-82
2023/06/19 02:20:59;;;;;;;1.47;0.90;;;22.70;93.30;;;;;;5029646;28;20463;-80
2023/06/19 02:23:26;;;;;;;1.63;1.20;;;22.70;92.50;;;;;;5034489;28;20459;-81
2023/06/19 02:25:52;;;;;;;1.47;0.83;;;22.70;92.30;;;;;;5029482;28;20478;-81
2023/06/19 02:28:19;;;;;;;1.47;0.90;;;22.80;93.60;;;;;;5042414;28;20471;-84
2023/06/19 02:30:48;;;;;;;1.47;0.90;;;22.70;92.60;;;;;;5038181;28;20506;-83
2023/06/19 02:33:14;;;;;;;1.43;0.90;;;22.80;92.10;;;;;;5034006;28;20480;-80
2023/06/19 02:35:41;;;;;;;1.50;1.13;;;22.80;92.30;;;;;;5036569;28;20466;-80
2023/06/19 02:38:09;;;;;;;1.47;0.90;;;22.80;92.20;;;;;;5018664;28;20488;-80
2023/06/19 02:40:35;;;;;;;1.43;0.80;;;22.90;92.20;;;;;;5042284;28;20469;-81
2023/06/19 02:43:02;;;;;;;1.43;0.90;;;22.90;91.90;;;;;;5022335;28;20491;-82
2023/06/19 02:45:29;;;;;;;1.43;0.90;;;22.90;92.10;;;;;;5037764;28;20807;-82
2023/06/19 02:47:57;;;;;;;1.43;0.90;;;22.90;92.00;;;;;;5024350;28;20529;-84
2023/06/19 02:50:24;;;;;;;1.50;1.00;;;22.90;92.20;;;;;;5041663;28;20459;-81
2023/06/19 02:52:50;;;;;;;1.43;0.90;;;22.90;91.70;;;;;;5022807;28;20997;-79
2023/06/19 02:55:17;;;;;;;1.47;0.90;;;22.80;91.90;;;;;;5035770;28;20475;-80
2023/06/19 02:57:44;;;;;;;1.43;0.90;;;22.80;92.20;;;;;;5024573;28;20892;-82
2023/06/19 03:00:12;;;;;;;1.47;0.90;;;22.70;92.30;;;;;;5046019;28;20459;-81
2023/06/19 03:02:43;;;;;;;2.33;1.73;;;22.70;92.60;;;;;;5025787;28;20495;-83
2023/06/19 03:05:14;;;;;;;1.47;0.90;;;22.60;92.30;;;;;;5041181;28;20498;-82
2023/06/19 03:07:41;;;;;;;1.43;0.87;;;22.50;92.50;;;;;;5022921;28;20487;-81
2023/06/19 03:10:08;;;;;;;1.43;0.90;;;22.50;92.60;;;;;;5036688;28;20528;-83
2023/06/19 03:12:35;;;;;;;1.47;0.90;;;22.40;92.60;;;;;;5025222;28;20498;-80
2023/06/19 03:15:02;;;;;;;1.40;0.90;;;22.40;92.60;;;;;;5037352;28;20678;-81
2023/06/19 03:17:28;;;;;;;1.47;0.87;;;22.40;93.40;;;;;;5023959;28;20491;-82
2023/06/19 03:19:56;;;;;;;1.43;0.90;;;22.40;93.30;;;;;;5039314;28;20458;-81
2023/06/19 03:22:24;;;;;;;1.50;0.90;;;22.30;93.10;;;;;;5033034;28;20886;-78
2023/06/19 03:24:50;;;;;;;1.43;0.90;;;22.30;94.60;;;;;;5036620;28;20456;-80
2023/06/19 03:27:17;;;;;;;1.43;0.83;;;22.20;94.90;;;;;;5026322;28;20495;-81
2023/06/19 03:29:44;;;;;;;1.47;0.90;;;22.10;95.10;;;;;;5037586;28;20459;-80
2023/06/19 03:32:11;;;;;;;1.50;0.90;;;22.00;95.10;;;;;;5020704;28;20904;-80
2023/06/19 03:34:37;;;;;;;1.47;0.90;;;22.00;95.00;;;;;;5034257;28;20471;-80
2023/06/19 03:37:05;;;;;;;1.47;0.90;;;22.00;95.70;;;;;;5031525;28;20482;-80
2023/06/19 03:39:33;;;;;;;1.40;0.90;;;21.90;95.40;;;;;;5039199;28;20459;-81
2023/06/19 03:42:00;;;;;;;1.50;0.90;;;21.90;95.70;;;;;;5025942;28;20494;-80
2023/06/19 03:44:26;;;;;;;1.47;0.90;;;21.80;95.50;;;;;;5030666;28;20453;-82
2023/06/19 03:46:53;;;;;;;1.50;0.90;;;21.80;95.70;;;;;;5026404;28;20483;-80
2023/06/19 03:49:20;;;;;;;1.43;0.90;;;21.80;95.70;;;;;;5036207;28;20466;-80
2023/06/19 03:51:47;;;;;;;1.50;1.00;;;21.80;96.40;;;;;;5025144;28;20560;-80
2023/06/19 03:54:13;;;;;;;1.43;0.90;;;21.80;96.60;;;;;;5034541;28;20455;-80
2023/06/19 03:56:42;;;;;;;1.50;0.90;;;21.70;97.10;;;;;;5027605;28;20600;-81
2023/06/19 03:59:08;;;;;;;1.47;0.90;;;21.70;97.10;;;;;;5034844;28;20462;-80
2023/06/19 04:01:35;;;;;;;1.43;0.90;;;21.70;97.10;;;;;;5026254;28;20486;-80
2023/06/19 04:04:02;;;;;;;1.50;0.90;;;21.70;97.30;;;;;;5029298;28;20468;-79
2023/06/19 04:06:30;;;;;;;1.40;0.90;;;21.70;97.40;;;;;;5025170;28;20494;-79
2023/06/19 04:08:57;;;;;;;1.47;0.90;;;21.70;97.50;;;;;;5032824;28;20497;-80
2023/06/19 04:11:24;;;;;;;1.50;0.90;;;21.70;97.50;;;;;;5029503;28;20493;-81
2023/06/19 04:13:52;;;;;;;1.47;0.90;;;21.70;97.50;;;;;;5036804;28;20467;-81
2023/06/19 04:16:20;;;;;;;1.40;0.90;;;21.60;97.50;;;;;;5027237;28;20551;-79
2023/06/19 04:18:47;;;;;;;1.40;0.90;;;21.60;97.90;;;;;;5031118;28;20463;-80
2023/06/19 04:21:15;;;;;;;1.47;0.87;;;21.70;97.70;;;;;;5025002;28;20494;-81
2023/06/19 04:23:42;;;;;;;1.43;0.90;;;21.70;98.10;;;;;;5035241;28;20562;-80
2023/06/19 04:26:09;;;;;;;1.40;0.90;;;21.80;97.80;;;;;;5029003;28;20492;-80
2023/06/19 04:28:35;;;;;;;1.43;0.90;;;21.80;97.80;;;;;;5030077;28;20515;-79
2023/06/19 04:31:03;;;;;;;1.47;0.90;;;21.80;97.70;;;;;;5023599;28;21023;-80
2023/06/19 04:33:30;;;;;;;1.50;0.90;;;21.90;97.40;;;;;;5030643;28;20466;-79
2023/06/19 04:35:57;;;;;;;1.43;0.90;;;21.90;97.30;;;;;;5025368;28;20505;-80
2023/06/19 04:38:24;;;;;;;1.50;0.90;;;21.90;97.20;;;;;;5032955;28;20471;-81
2023/06/19 04:40:51;;;;;;;1.43;0.90;;;22.00;97.60;;;;;;5027758;28;20492;-81
2023/06/19 04:43:18;;;;;;;1.50;0.90;;;22.00;97.80;;;;;;5027760;28;20460;-80
2023/06/19 04:45:45;;;;;;;1.50;0.90;;;22.00;97.30;;;;;;5036631;28;20490;-81
2023/06/19 04:48:13;;;;;;;1.47;0.90;;;22.10;97.20;;;;;;5019967;28;20492;-80
2023/06/19 04:50:42;;;;;;;1.47;0.90;;;22.10;97.40;;;;;;5041482;28;20459;-81
2023/06/19 04:53:09;;;;;;;1.50;0.90;;;22.10;97.70;;;;;;5019399;28;20530;-80
2023/06/19 04:55:37;;;;;;;1.50;0.90;;;22.20;97.10;;;;;;5025842;28;20475;-79
2023/06/19 04:58:04;;;;;;;1.47;0.83;;;22.20;97.10;;;;;;5021492;28;20477;-77
2023/06/19 05:00:31;;;;;;;1.43;0.90;;;22.40;97.70;;;;;;5028861;28;20460;-79
2023/06/19 05:03:00;;;;;;;1.43;0.90;;;22.50;97.70;;;;;;5024250;28;20482;-77
2023/06/19 05:05:28;;;;;;;1.40;0.80;;;22.60;96.70;;;;;;5021553;28;20463;-78
2023/06/19 05:07:55;;;;;;;1.40;0.90;;;22.70;96.40;;;;;;5025655;28;20485;-79
2023/06/19 05:10:22;;;;;;;1.47;0.87;;;22.70;96.30;;;;;;5017217;28;20476;-77
2023/06/19 05:12:48;;;;;;;1.47;0.87;;;22.70;96.60;;;;;;5009119;28;20483;-76
2023/06/19 05:15:15;;;;;;;1.47;0.90;;;22.60;96.90;;;;;;5020838;28;20460;-80
2023/06/19 05:17:42;;;;;;;1.40;0.80;;;22.50;97.20;;;;;;5017817;28;20955;-78
2023/06/19 05:20:11;;;;;;;1.43;0.90;;;22.40;96.90;;;;;;5021170;28;20462;-76
2023/06/19 05:22:39;;;;;;;1.43;0.90;;;22.40;97.50;;;;;;5017416;28;20930;-77
2023/06/19 05:25:07;;;;;;;1.43;0.90;;;22.40;97.40;;;;;;5020999;28;20466;-79
2023/06/19 05:27:34;;;;;;;1.40;0.83;;;22.40;97.50;;;;;;5017119;28;20487;-77
2023/06/19 05:30:01;;;;;;;1.40;0.80;;;22.40;97.60;;;;;;5025787;28;20463;-77
2023/06/19 05:32:28;;;;;;;1.40;0.90;;;22.40;97.90;;;;;;5020220;28;20493;-78
2023/06/19 05:34:55;;;;;;;1.50;0.80;;;22.60;97.70;;;;;;5026399;28;20463;-77
2023/06/19 05:37:24;;;;;;;1.50;0.90;;;22.60;96.70;;;;;;5014203;28;20479;-79
2023/06/19 05:39:52;;;;;;;1.50;0.90;;;22.80;96.00;;;;;;5035562;28;20549;-78
2023/06/19 05:42:19;;;;;;;1.47;0.90;;;23.00;94.80;;;;;;5023160;28;20487;-80
2023/06/19 05:44:45;;;;;;;1.50;0.90;;;23.20;94.20;;;;;;5028739;28;20470;-79
2023/06/19 05:47:12;;;;;;;1.40;0.90;;;23.40;93.60;;;;;;5025481;28;20989;-81
2023/06/19 05:49:40;;;;;;;1.47;0.90;;;23.50;92.70;;;;;;5035770;28;20970;-80
2023/06/19 05:52:08;;;;;;;1.43;0.80;;;23.70;91.40;;;;;;5029911;28;20513;-82
2023/06/19 05:54:35;;;;;;;1.47;0.90;;;23.70;91.30;;;;;;5031261;28;20530;-83
2023/06/19 05:57:03;;;;;;;1.43;0.87;;;23.70;91.00;;;;;;5028590;28;21023;-81
2023/06/19 05:59:30;;;;;;;1.40;0.80;;;23.60;91.00;;;;;;5033004;28;20528;-82
2023/06/19 06:01:57;;;;;;;1.47;0.80;;;23.50;91.20;;;;;;5030274;28;20485;-81
2023/06/19 06:04:27;;;;;;;1.47;0.80;;;23.50;91.30;;;;;;5033647;28;20463;-81
2023/06/19 06:06:56;;;;;;;1.47;0.90;;;23.50;91.50;;;;;;5024508;28;20476;-80
2023/06/19 06:09:23;;;;;;;1.50;1.00;;;23.50;91.60;;;;;;5033623;28;20460;-84
2023/06/19 06:11:50;;;;;;;1.40;0.90;;;23.50;91.40;;;;;;5020264;28;20900;-77
2023/06/19 06:14:18;;;;;;;1.47;0.80;;;23.60;91.10;;;;;;5028056;28;20847;-82
2023/06/19 06:16:44;;;;;;;1.47;0.80;;;23.60;91.20;;;;;;5018905;28;20512;-79
2023/06/19 06:19:12;;;;;;;1.40;0.80;;;23.60;91.20;;;;;;5032283;28;20455;-82
2023/06/19 06:21:39;;;;;;;1.40;0.90;;;23.70;91.60;;;;;;5020476;28;20503;-79
2023/06/19 06:24:06;;;;;;;1.43;0.90;;;23.80;91.30;;;;;;5028342;28;20482;-85
2023/06/19 06:26:35;;;;;;;1.50;0.87;;;23.90;91.30;;;;;;5020555;28;21036;-80
2023/06/19 06:29:01;;;;;;;1.43;0.90;;;24.10;91.30;;;;;;5029591;28;20521;-80
2023/06/19 06:31:30;;;;;;;1.40;0.90;;;24.20;90.50;;;;;;5025979;28;20490;-81
2023/06/19 06:33:56;;;;;;;1.47;0.90;;;24.40;90.50;;;;;;5034236;28;20455;-79
2023/06/19 06:36:24;;;;;;;1.43;0.80;;;24.60;89.90;;;;;;5023834;28;20490;-83
2023/06/19 06:38:51;;;;;;;1.43;0.80;;;24.70;89.50;;;;;;5038040;28;20466;-84
2023/06/19 06:41:18;;;;;;;1.47;0.90;;;24.70;88.90;;;;;;5024193;28;20980;-83
2023/06/19 06:43:45;;;;;;;1.43;0.87;;;24.70;89.20;;;;;;5038850;28;20468;-83
2023/06/19 06:46:12;;;;;;;1.50;0.90;;;24.70;89.20;;;;;;5018206;28;20499;-81
2023/06/19 06:48:40;;;;;;;1.50;0.87;;;24.60;89.30;;;;;;5038478;28;20464;-81
2023/06/19 06:51:09;;;;;;;1.50;0.90;;;24.60;89.60;;;;;;5025319;28;20484;-84
2023/06/19 06:53:35;;;;;;;1.47;0.87;;;24.60;89.70;;;;;;5029403;28;20828;-82
2023/06/19 06:56:02;;;;;;;1.50;0.90;;;24.60;89.90;;;;;;5019042;28;20549;-81
2023/06/19 06:58:29;;;;;;;1.50;0.90;;;24.60;89.90;;;;;;5029375;28;20521;-81
2023/06/19 07:00:56;;;;;;;1.43;0.80;;;24.60;90.20;;;;;;5018549;28;20507;-82
2023/06/19 07:03:25;;;;;;;1.43;0.80;;;24.70;89.90;;;;;;5041677;28;20552;-81
2023/06/19 07:05:53;;;;;;;1.43;0.80;;;24.70;90.30;;;;;;5020401;28;20458;-84
2023/06/19 07:08:20;;;;;;;1.47;0.80;;;24.60;90.30;;;;;;5038230;28;20464;-86
2023/06/19 07:10:47;;;;;;;1.43;0.80;;;24.50;90.20;;;;;;5033121;28;20463;-88
2023/06/19 07:13:14;;;;;;;1.47;0.80;;;24.60;90.30;;;;;;5032219;28;20486;-86
2023/06/19 07:15:41;;;;;;;1.47;0.80;;;24.60;90.40;;;;;;5037126;28;20490;-86
2023/06/19 07:18:08;;;;;;;1.47;0.80;;;24.60;90.20;;;;;;5029522;28;20484;-85
2023/06/19 07:20:35;;;;;;;1.47;0.80;;;24.70;90.10;;;;;;5038915;28;20459;-88
2023/06/19 07:23:03;;;;;;;1.43;0.80;;;24.70;90.20;;;;;;5025737;28;20570;-87
2023/06/19 07:25:33;;;;;;;1.47;0.80;;;24.80;89.90;;;;;;5030407;28;20502;-85
2023/06/19 07:28:00;;;;;;;1.50;0.80;;;24.80;89.90;;;;;;5031754;28;20728;-83
2023/06/19 07:30:27;;;;;;;1.43;0.80;;;24.80;89.70;;;;;;5026369;28;20908;-79
2023/06/19 07:32:54;;;;;;;1.47;0.80;;;24.80;89.50;;;;;;5025605;28;20573;-79
2023/06/19 07:35:21;;;;;;;1.47;0.83;;;24.70;89.50;;;;;;5030348;28;20509;-81
2023/06/19 07:37:48;;;;;;;1.50;0.90;;;24.70;89.70;;;;;;5035405;28;20487;-85
2023/06/19 07:40:17;;;;;;;1.43;0.90;;;24.60;90.00;;;;;;5031771;28;20455;-85
2023/06/19 07:42:44;;;;;;;1.50;0.90;;;24.50;90.00;;;;;;5032486;28;20549;-84
2023/06/19 07:45:12;;;;;;;1.47;0.80;;;24.50;90.80;;;;;;5029619;28;20460;-88
2023/06/19 07:47:40;;;;;;;1.43;0.80;;;24.40;91.20;;;;;;5014107;28;21914;-83
2023/06/19 07:50:08;;;;;;;1.47;0.90;;;24.50;91.70;;;;;;5035228;28;20495;-89
2023/06/19 07:52:34;;;;;;;1.47;0.90;;;24.40;91.90;;;;;;5021525;28;20483;-84
2023/06/19 07:55:01;;;;;;;1.50;0.90;;;24.40;92.00;;;;;;5031859;28;20455;-83
2023/06/19 07:57:32;;;;;;;1.47;0.80;;;24.40;92.30;;;;;;5027600;28;20500;-87
2023/06/19 07:59:59;;;;;;;1.47;0.80;;;24.40;92.20;;;;;;5028735;28;20966;-84
2023/06/19 08:02:27;;;;;;;1.43;0.80;;;24.50;92.10;;;;;;5018540;28;20488;-83
2023/06/19 08:04:54;;;;;;;1.43;0.80;;;24.60;91.90;;;;;;5028574;28;20458;-83
2023/06/19 08:07:21;;;;;;;1.47;0.80;;;24.60;91.30;;;;;;5019766;28;20483;-84
2023/06/19 08:09:48;;;;;;;1.50;0.90;;;24.60;90.70;;;;;;5024691;28;20895;-85
2023/06/19 08:12:15;;;;;;;1.50;0.80;;;24.70;90.80;;;;;;5027449;28;20495;-87
2023/06/19 08:14:43;;;;;;;1.47;0.80;;;24.80;90.60;;;;;;5032533;28;20459;-85
2023/06/19 08:17:10;;;;;;;1.47;0.80;;;24.90;90.10;;;;;;5027646;28;20498;-86
2023/06/19 08:19:38;;;;;;;1.50;0.83;;;25.00;90.30;;;;;;5031128;28;20517;-87
2023/06/19 08:22:06;;;;;;;1.50;0.80;;;25.20;90.10;;;;;;5022306;28;20483;-85
2023/06/19 08:24:33;;;;;;;1.50;0.80;;;25.50;90.10;;;;;;5028561;28;20494;-84
2023/06/19 08:26:59;;;;;;;1.50;0.80;;;25.80;89.80;;;;;;5021217;28;20479;-85
2023/06/19 08:29:26;;;;;;;1.50;0.90;;;26.30;88.60;;;;;;5033157;28;20470;-90
2023/06/19 08:31:55;;;;;;;1.50;0.90;;;26.60;87.30;;;;;;5028353;28;20483;-85
2023/06/19 08:34:21;;;;;;;1.50;0.80;;;26.90;85.90;;;;;;5028802;28;20809;-84
2023/06/19 08:36:48;;;;;;;1.50;0.83;;;27.10;86.20;;;;;;5026649;28;20480;-83
2023/06/19 08:39:15;;;;;;;1.50;0.80;;;27.40;85.20;;;;;;5028819;28;20467;-89
2023/06/19 08:41:43;;;;;;;1.40;0.80;;;27.70;83.40;;;;;;5022118;28;20493;-86
2023/06/19 08:44:10;;;;;;;1.50;0.83;;;28.00;83.90;;;;;;5026557;28;20458;-86
2023/06/19 08:46:37;;;;;;;1.47;0.80;;;28.20;81.90;;;;;;5020722;28;20493;-82
2023/06/19 08:49:07;;;;;;;1.40;0.80;;;28.30;80.80;;;;;;5030873;28;20463;-84
2023/06/19 08:51:36;;;;;;;1.50;0.80;;;28.20;81.00;;;;;;5019999;28;20486;-84
2023/06/19 08:54:05;;;;;;;1.47;0.80;;;28.30;81.80;;;;;;5030612;28;20532;-86
2023/06/19 08:56:33;;;;;;;1.43;0.80;;;28.50;80.80;;;;;;5017881;28;20492;-81
2023/06/19 08:59:10;;;;;;;1.47;0.80;;;28.60;80.00;;;;;;5025319;28;20850;-81
2023/06/19 09:01:37;;;;;;;1.47;0.80;;;28.60;80.20;;;;;;5020784;28;20509;-87
2023/06/19 09:04:11;;;;;;;1.43;0.80;;;28.60;78.40;;;;;;5029398;28;20490;-84
2023/06/19 09:06:49;;;;;;;1.47;0.80;;;28.50;79.20;;;;;;5014073;28;20479;-85
2023/06/19 09:09:16;;;;;;;1.50;0.90;;;28.50;78.90;;;;;;5023535;28;20463;-84
2023/06/19 09:11:44;;;;;;;1.47;0.80;;;28.60;78.90;;;;;;5022894;28;20593;-81
2023/06/19 09:14:11;;;;;;;1.47;0.80;;;28.70;77.10;;;;;;5030251;28;20470;-85
2023/06/19 09:16:40;;;;;;;1.47;0.80;;;28.80;77.50;;;;;;5022557;28;20474;-84
2023/06/19 09:19:07;;;;;;;1.47;0.80;;;28.90;77.70;;;;;;5033847;28;20954;-83
2023/06/19 09:21:37;;;;;;;1.47;0.90;;;28.90;77.60;;;;;;5019430;28;20486;-83
2023/06/19 09:24:05;;;;;;;1.43;0.80;;;28.70;77.60;;;;;;5027877;28;20454;-83
2023/06/19 09:26:32;;;;;;;1.47;0.90;;;28.60;77.60;;;;;;5024574;28;20472;-80
2023/06/19 09:28:59;;;;;;;1.43;0.80;;;28.50;78.40;;;;;;5029446;28;20545;-83
2023/06/19 09:31:33;;;;;;;1.43;0.80;;;28.40;77.30;;;;;;5019803;28;20493;-84
2023/06/19 09:34:00;;;;;;;1.40;0.80;;;28.40;78.10;;;;;;5030775;28;20454;-83
2023/06/19 09:36:27;;;;;;;2.10;1.17;;;28.60;77.60;;;;;;5022272;28;20470;-84
2023/06/19 09:38:57;;;;;;;1.43;0.80;;;28.70;77.30;;;;;;5026721;28;20862;-85
2023/06/19 09:41:25;;;;;;;1.40;0.80;;;28.80;77.10;;;;;;5023744;28;20485;-85
2023/06/19 09:43:57;;;;;;;1.93;1.17;;;28.60;77.50;;;;;;5038624;28;20461;-86
2023/06/19 09:46:31;;;;;;;1.70;1.47;;;28.60;78.20;;;;;;5023548;28;20516;-81
2023/06/19 09:49:01;;;;;;;1.50;0.80;;;28.40;78.10;;;;;;5037853;28;20486;-82
2023/06/19 09:51:31;;;;;;;1.43;0.80;;;28.30;78.70;;;;;;5018692;28;20495;-84
2023/06/19 09:54:03;;;;;;;1.40;0.80;;;28.50;78.70;;;;;;5027848;28;20767;-83
2023/06/19 09:56:30;;;;;;;1.47;0.80;;;28.80;77.50;;;;;;5019701;28;20483;-82
2023/06/19 09:59:00;;;;;;;1.43;0.80;;;29.00;75.80;;;;;;5028777;28;20454;-79
2023/06/19 10:01:29;;;;;;;1.47;0.90;;;29.00;75.80;;;;;;5019743;28;20495;-83
2023/06/19 10:04:07;;;;;;;1.47;0.80;;;29.00;76.00;;;;;;5031082;28;20472;-83
2023/06/19 10:06:34;;;;;;;1.47;0.80;;;28.90;76.50;;;;;;5023122;28;20999;-80
2023/06/19 10:09:09;;;;;;;1.47;0.80;;;29.10;76.90;;;;;;5037175;28;20812;-83
2023/06/19 10:11:47;;;;;;;1.47;0.80;;;29.40;75.20;;;;;;5020831;28;20574;-83
2023/06/19 10:14:14;;;;;;;1.47;0.80;;;29.80;73.20;;;;;;5025695;28;20462;-84
2023/06/19 10:16:41;;;;;;;1.60;1.27;;;30.10;73.00;;;;;;5022889;28;20487;-81
2023/06/19 10:19:12;;;;;;;1.50;0.80;;;30.40;71.80;;;;;;5034367;28;20451;-84
2023/06/19 10:21:46;;;;;;;1.50;0.80;;;30.60;70.50;;;;;;5022995;28;20485;-82
2023/06/19 10:24:19;;;;;;;1.50;1.00;;;30.90;71.20;;;;;;5033196;28;20462;-82
2023/06/19 10:26:56;;;;;;;1.77;1.17;;;31.20;70.30;;;;;;5027854;28;20570;-86
2023/06/19 10:29:23;;;;;;;1.47;0.80;;;31.50;69.30;;;;;;5035309;28;20460;-83
2023/06/19 10:31:51;;;;;;;1.47;0.80;;;31.60;69.80;;;;;;5019334;28;20479;-85
2023/06/19 10:34:18;;;;;;;1.50;0.80;;;31.80;68.80;;;;;;5032125;28;20452;-84
2023/06/19 10:36:45;;;;;;;1.97;1.53;;;32.00;69.00;;;;;;5022601;28;20473;-85
2023/06/19 10:39:12;;;;;;;1.47;0.80;;;32.20;67.40;;;;;;5031680;28;20706;-82
2023/06/19 10:41:42;;;;;;;1.50;0.80;;;32.30;67.50;;;;;;5023830;28;20270;-83
2023/06/19 10:44:12;;;;;;;1.40;0.80;;;32.30;68.00;;;;;;5032769;28;20211;-86
2023/06/19 10:46:40;;;;;;;1.43;0.80;;;32.40;66.90;;;;;;5021581;28;20263;-85
2023/06/19 10:49:10;;;;;;;1.43;0.80;;;32.30;67.10;;;;;;5033215;28;20562;-82
2023/06/19 10:51:37;;;;;;;1.40;0.80;;;32.30;67.10;;;;;;5024831;28;20674;-85
2023/06/19 10:54:05;;;;;;;1.40;0.80;;;32.20;67.30;;;;;;5034740;28;20303;-84
2023/06/19 10:56:32;;;;;;;1.50;0.80;;;32.20;66.60;;;;;;5025968;28;20231;-82
2023/06/19 10:59:01;;;;;;;1.50;1.10;;;32.20;67.00;;;;;;5037780;28;20767;-85
2023/06/19 11:01:35;;;;;;;1.40;0.80;;;32.10;66.20;;;;;;5026791;28;20261;-85
2023/06/19 11:04:04;;;;;;;1.40;0.80;;;32.20;66.60;;;;;;5037193;28;20231;-82
2023/06/19 11:06:32;;;;;;;1.43;0.80;;;32.30;65.80;;;;;;5021605;28;20235;-81
2023/06/19 11:09:00;;;;;;;1.47;0.80;;;32.40;66.40;;;;;;5030616;28;20243;-86
2023/06/19 11:11:38;;;;;;;1.50;0.90;;;32.40;66.00;;;;;;5023286;28;20228;-87
2023/06/19 11:14:08;;;;;;;1.43;0.80;;;32.50;66.00;;;;;;5032359;28;20399;-87
2023/06/19 11:16:35;;;;;;;1.43;0.80;;;32.60;64.90;;;;;;5025052;28;20248;-85
2023/06/19 11:19:03;;;;;;;1.50;0.90;;;32.60;66.20;;;;;;5027683;28;20215;-85
2023/06/19 11:21:34;;;;;;;1.40;0.80;;;32.60;65.80;;;;;;5022645;28;20317;-87
2023/06/19 11:24:01;;;;;;;1.43;0.80;;;32.60;66.20;;;;;;5039044;28;20255;-89
2023/06/19 11:26:28;;;;;;;1.43;0.80;;;33.00;65.70;;;;;;5021466;28;20364;-84
2023/06/19 11:28:55;;;;;;;1.43;0.80;;;33.20;63.90;;;;;;5026669;28;20235;-83
2023/06/19 11:31:28;;;;;;;1.43;0.80;;;33.30;64.20;;;;;;5019840;28;20239;-84
2023/06/19 11:34:01;;;;;;;1.45;0.80;;;33.20;63.40;;;;;;5026593;28;20203;-85
2023/06/19 11:36:29;;;;;;;1.45;0.80;;;33.30;64.30;;;;;;5021751;28;20290;-83
2023/06/19 11:38:56;;;;;;;1.42;0.80;;;33.50;64.40;;;;;;5039764;28;20199;-83
2023/06/19 11:41:28;;;;;;;1.42;0.80;;;33.70;64.20;;;;;;5021774;28;20741;-83
2023/06/19 11:44:01;;;;;;;1.50;1.00;;;33.70;62.70;;;;;;5039500;28;20230;-86
2023/06/19 11:46:34;;;;;;;1.42;0.80;;;33.90;62.20;;;;;;5024803;28;20227;-86
2023/06/19 11:49:12;;;;;;;1.40;0.80;;;34.00;62.50;;;;;;5029878;28;20476;-83
2023/06/19 11:51:39;;;;;;;1.42;0.80;;;34.00;61.90;;;;;;5019821;28;20224;-85
2023/06/19 11:54:08;;;;;;;1.45;0.80;;;34.10;62.10;;;;;;5027319;28;20291;-86
2023/06/19 11:56:35;;;;;;;1.80;1.45;;;34.10;60.90;;;;;;5021260;28;20228;-87
2023/06/19 11:59:03;;;;;;;1.45;0.80;;;34.00;61.10;;;;;;5033235;28;20205;-84
2023/06/19 12:01:30;;;;;;;1.40;0.80;;;34.20;61.40;;;;;;5018922;28;20304;-83
2023/06/19 12:03:58;;;;;;;1.40;0.80;;;34.30;61.60;;;;;;5038226;28;20206;-82
2023/06/19 12:06:27;;;;;;;1.40;0.80;;;34.40;60.80;;;;;;5022598;28;20240;-84
2023/06/19 12:08:54;;;;;;;1.40;0.80;;;34.40;59.30;;;;;;5042837;28;20279;-85
2023/06/19 12:11:21;;;;;;;1.40;0.80;;;34.40;60.50;;;;;;5019635;28;20274;-87
2023/06/19 12:13:48;;;;;;;1.50;0.90;;;34.60;60.60;;;;;;5030943;28;20203;-85
2023/06/19 12:16:15;;;;;;;1.40;0.80;;;34.70;60.50;;;;;;5018813;28;20315;-84
2023/06/19 12:18:43;;;;;;;1.40;0.80;;;34.50;61.20;;;;;;5030160;28;20204;-82
2023/06/19 12:21:11;;;;;;;1.40;0.80;;;34.40;60.60;;;;;;5019584;28;20499;-87
2023/06/19 12:23:37;;;;;;;1.40;0.80;;;34.50;61.20;;;;;;5037954;28;20334;-81
2023/06/19 12:26:04;;;;;;;1.40;0.90;;;34.70;60.20;;;;;;5017137;28;20200;-85
2023/06/19 12:28:31;;;;;;;1.40;0.80;;;34.70;59.50;;;;;;5024413;28;20240;-84
2023/06/19 12:30:58;;;;;;;1.40;0.80;;;34.80;60.30;;;;;;5016664;28;20201;-85
2023/06/19 12:33:25;;;;;;;1.40;0.80;;;34.90;59.20;;;;;;5024210;28;20236;-80
2023/06/19 12:35:52;;;;;;;1.40;0.80;;;35.00;59.50;;;;;;5019092;28;20275;-83
2023/06/19 12:38:20;;;;;;;1.40;0.80;;;35.00;59.90;;;;;;5040658;28;20212;-84
2023/06/19 12:40:47;;;;;;;1.48;0.80;;;35.20;59.40;;;;;;5024536;28;20269;-82
2023/06/19 12:43:13;;;;;;;1.40;0.80;;;35.20;59.00;;;;;;5030233;28;20229;-85
2023/06/19 12:45:41;;;;;;;1.40;0.80;;;35.00;58.00;;;;;;5033357;28;20288;-87
2023/06/19 12:48:08;;;;;;;1.40;0.90;;;34.80;59.00;;;;;;5020387;28;20236;-84
2023/06/19 12:50:35;;;;;;;1.40;0.80;;;34.60;59.70;;;;;;5029638;28;20215;-84